createdAt,value
2018-07-22T00:00:36.781Z,17.17
2018-07-22T00:03:07.167Z,17.60
2018-07-22T00:05:37.014Z,17.57
2018-07-22T00:08:06.873Z,18.37
2018-07-22T00:10:36.796Z,17.67
2018-07-22T00:13:06.728Z,17.47
2018-07-22T00:15:36.625Z,17.73
2018-07-22T00:21:00.763Z,18.27
2018-07-22T00:23:30.612Z,17.70
2018-07-22T00:26:00.544Z,17.23
2018-07-22T00:28:30.500Z,17.00
2018-07-22T00:31:00.423Z,17.17
2018-07-22T00:33:30.702Z,17.47
2018-07-22T00:36:00.541Z,17.33
2018-07-22T00:38:30.448Z,17.77
2018-07-22T00:41:00.292Z,16.80
2018-07-22T00:43:30.175Z,16.77
2018-07-22T00:46:00.007Z,17.67
2018-07-22T00:48:29.864Z,16.90
2018-07-22T00:51:00.085Z,16.57
2018-07-22T00:53:29.954Z,16.60
2018-07-22T00:55:59.867Z,16.67
2018-07-22T00:58:29.723Z,17.63
2018-07-22T01:00:59.615Z,16.93
2018-07-22T01:03:29.535Z,17.07
2018-07-22T01:05:59.402Z,17.63
2018-07-22T01:08:29.279Z,17.83
2018-07-22T01:10:59.142Z,18.00
2018-07-22T01:13:29.362Z,16.47
2018-07-22T01:15:59.329Z,15.80
2018-07-22T01:18:41.912Z,15.70
2018-07-22T01:21:11.889Z,14.93
2018-07-22T01:23:41.770Z,14.70
2018-07-22T01:26:11.658Z,13.33
2018-07-22T01:28:41.590Z,13.83
2018-07-22T01:31:11.522Z,14.03
2018-07-22T01:33:41.530Z,13.47
2018-07-22T01:36:11.396Z,12.97
2018-07-22T01:38:41.261Z,12.60
2018-07-22T01:41:11.126Z,12.57
2018-07-22T01:43:41.043Z,12.27
2018-07-22T01:46:10.899Z,11.57
2018-07-22T01:48:40.771Z,11.43
2018-07-22T01:51:10.638Z,10.63
2018-07-22T01:53:40.472Z,11.90
2018-07-22T01:56:10.422Z,11.33
2018-07-22T01:58:40.269Z,11.63
2018-07-22T02:01:10.268Z,11.97
2018-07-22T02:03:40.192Z,11.57
2018-07-22T02:06:10.018Z,11.33
2018-07-22T02:08:39.907Z,11.87
2018-07-22T02:11:09.779Z,12.20
2018-07-22T02:13:39.661Z,11.90
2018-07-22T02:16:09.589Z,11.70
2018-07-22T02:18:39.463Z,12.40
2018-07-22T02:21:09.389Z,12.90
2018-07-22T02:23:39.240Z,11.47
2018-07-22T02:26:09.125Z,11.80
2018-07-22T02:28:39.125Z,12.90
2018-07-22T02:31:09.550Z,11.67
2018-07-22T02:33:39.494Z,11.30
2018-07-22T02:36:09.610Z,11.53
2018-07-22T02:38:39.464Z,11.87
2018-07-22T02:41:09.339Z,11.07
2018-07-22T02:43:39.297Z,11.00
2018-07-22T02:46:09.208Z,11.03
2018-07-22T02:48:39.198Z,10.50
2018-07-22T02:51:09.100Z,10.90
2018-07-22T02:53:38.954Z,10.47
2018-07-22T02:56:08.796Z,10.70
2018-07-22T02:58:38.750Z,11.40
2018-07-22T03:01:08.689Z,11.07
2018-07-22T03:03:38.481Z,10.97
2018-07-22T03:06:08.326Z,11.60
2018-07-22T03:08:38.184Z,11.03
2018-07-22T03:11:08.135Z,12.03
2018-07-22T03:13:37.973Z,11.10
2018-07-22T03:16:08.546Z,11.10
2018-07-22T03:18:38.381Z,11.53
2018-07-22T03:21:08.306Z,10.63
2018-07-22T03:23:38.168Z,10.83
2018-07-22T03:26:08.075Z,10.37
2018-07-22T03:28:37.935Z,11.03
2018-07-22T03:31:07.817Z,10.10
2018-07-22T03:33:37.709Z,10.57
2018-07-22T03:36:07.540Z,11.10
2018-07-22T03:38:37.387Z,10.10
2018-07-22T03:41:07.256Z,11.27
2018-07-22T03:43:37.099Z,11.23
2018-07-22T03:46:07.046Z,11.17
2018-07-22T03:48:36.909Z,10.50
2018-07-22T03:51:06.854Z,10.40
2018-07-22T03:53:36.800Z,10.97
2018-07-22T03:56:06.685Z,10.60
2018-07-22T03:58:36.661Z,11.60
2018-07-22T04:01:06.494Z,10.23
2018-07-22T04:03:36.395Z,10.80
2018-07-22T04:06:06.259Z,10.73
2018-07-22T04:08:36.154Z,10.97
2018-07-22T04:11:06.059Z,11.13
2018-07-22T04:13:35.935Z,10.67
2018-07-22T04:16:05.801Z,10.37
2018-07-22T04:18:39.782Z,11.13
2018-07-22T04:21:09.634Z,10.97
2018-07-22T04:23:39.481Z,10.80
2018-07-22T04:26:09.368Z,11.27
2018-07-22T04:28:39.194Z,10.40
2018-07-22T04:31:09.112Z,10.60
2018-07-22T04:33:38.985Z,10.07
2018-07-22T04:36:09.221Z,11.87
2018-07-22T04:38:39.137Z,11.83
2018-07-22T04:41:09.017Z,11.77
2018-07-22T04:43:38.852Z,11.00
2018-07-22T04:46:08.755Z,11.57
2018-07-22T04:48:38.663Z,11.17
2018-07-22T04:51:08.549Z,10.45
2018-07-22T04:53:39.125Z,10.13
2018-07-22T04:56:09.631Z,9.50
2018-07-22T04:58:39.677Z,9.85
2018-07-22T05:01:09.768Z,9.83
2018-07-22T05:03:39.845Z,9.85
2018-07-22T05:06:09.919Z,10.43
2018-07-22T05:08:40.031Z,10.58
2018-07-22T05:11:10.105Z,9.33
2018-07-22T05:13:40.236Z,9.85
2018-07-22T05:16:10.328Z,10.43
2018-07-22T05:18:40.424Z,9.73
2018-07-22T05:21:10.499Z,9.78
2018-07-22T05:23:40.660Z,9.83
2018-07-22T05:26:10.740Z,10.10
2018-07-22T05:28:40.796Z,9.18
2018-07-22T05:31:10.866Z,9.10
2018-07-22T05:33:40.998Z,8.38
2018-07-22T05:36:11.295Z,8.28
2018-07-22T05:38:41.522Z,8.50
2018-07-22T05:41:11.697Z,8.63
2018-07-22T05:43:41.852Z,8.75
2018-07-22T05:46:11.931Z,8.35
2018-07-22T05:48:41.731Z,7.93
2018-07-22T05:51:11.822Z,7.92
2018-07-22T05:53:41.638Z,7.23
2018-07-22T05:56:11.428Z,7.33
2018-07-22T05:58:41.224Z,7.70
2018-07-22T06:01:11.001Z,7.20
2018-07-22T06:03:40.793Z,7.13
2018-07-22T06:06:10.636Z,8.20
2018-07-22T06:08:40.427Z,7.80
2018-07-22T06:11:10.248Z,7.30
2018-07-22T06:16:14.581Z,7.83
2018-07-22T06:18:44.324Z,6.60
2018-07-22T06:21:14.021Z,7.30
2018-07-22T06:23:43.736Z,6.77
2018-07-22T06:26:13.487Z,6.70
2018-07-22T06:28:43.217Z,6.70
2018-07-22T06:31:12.955Z,6.60
2018-07-22T06:33:42.684Z,6.53
2018-07-22T06:36:12.708Z,6.57
2018-07-22T06:38:42.435Z,6.07
2018-07-22T06:41:12.287Z,6.07
2018-07-22T06:43:42.207Z,6.20
2018-07-22T06:46:11.991Z,5.73
2018-07-22T06:48:41.944Z,6.20
2018-07-22T06:51:12.015Z,6.00
2018-07-22T06:53:41.899Z,6.27
2018-07-22T06:56:11.697Z,5.57
2018-07-22T06:58:41.407Z,5.20
2018-07-22T07:01:11.205Z,5.90
2018-07-22T07:03:40.923Z,5.57
2018-07-22T07:06:10.776Z,5.80
2018-07-22T07:08:40.582Z,4.83
2018-07-22T07:11:10.495Z,5.10
2018-07-22T07:13:40.250Z,5.30
2018-07-22T07:16:10.347Z,5.37
2018-07-22T07:18:40.102Z,5.20
2018-07-22T07:21:09.813Z,5.10
2018-07-22T07:23:39.508Z,5.33
2018-07-22T07:26:09.573Z,5.27
2018-07-22T07:28:39.642Z,5.90
2018-07-22T07:31:09.700Z,5.50
2018-07-22T07:33:39.755Z,5.60
2018-07-22T07:36:10.149Z,5.43
2018-07-22T07:38:40.247Z,5.80
2018-07-22T07:41:10.326Z,5.53
2018-07-22T07:43:40.396Z,5.20
2018-07-22T07:46:10.485Z,5.20
2018-07-22T07:48:40.596Z,5.10
2018-07-22T07:51:10.671Z,5.33
2018-07-22T07:53:40.794Z,5.60
2018-07-22T07:56:10.867Z,5.00
2018-07-22T07:58:41.006Z,5.37
2018-07-22T08:01:11.058Z,5.40
2018-07-22T08:03:41.165Z,5.27
2018-07-22T08:06:11.412Z,5.27
2018-07-22T08:08:41.544Z,5.40
2018-07-22T08:11:11.637Z,5.47
2018-07-22T08:13:41.729Z,4.80
2018-07-22T08:16:11.805Z,5.37
2018-07-22T08:18:42.721Z,5.10
2018-07-22T08:21:12.863Z,5.33
2018-07-22T08:23:42.948Z,5.00
2018-07-22T08:26:13.141Z,4.40
2018-07-22T08:28:54.173Z,5.40
2018-07-22T08:31:24.286Z,4.77
2018-07-22T08:33:54.377Z,5.13
2018-07-22T08:36:24.737Z,4.80
2018-07-22T08:38:54.856Z,4.50
2018-07-22T08:41:24.970Z,4.77
2018-07-22T08:43:55.105Z,4.70
2018-07-22T08:46:25.248Z,4.80
2018-07-22T08:48:55.311Z,4.47
2018-07-22T08:51:25.418Z,4.53
2018-07-22T08:53:55.554Z,5.00
2018-07-22T08:56:25.725Z,4.60
2018-07-22T08:58:55.968Z,4.90
2018-07-22T09:01:26.951Z,4.90
2018-07-22T09:03:57.063Z,4.43
2018-07-22T09:06:27.741Z,4.90
2018-07-22T09:08:57.865Z,4.83
2018-07-22T09:11:27.937Z,4.27
2018-07-22T09:13:58.453Z,4.63
2018-07-22T09:16:28.525Z,4.87
2018-07-22T09:18:58.624Z,4.77
2018-07-22T09:21:28.708Z,4.40
2018-07-22T09:23:58.852Z,4.77
2018-07-22T09:26:28.970Z,4.80
2018-07-22T09:28:59.421Z,6.05
2018-07-22T09:31:29.787Z,5.33
2018-07-22T09:34:00.197Z,5.45
2018-07-22T09:36:30.833Z,5.08
2018-07-22T09:39:01.486Z,5.10
2018-07-22T09:41:31.833Z,6.83
2018-07-22T09:44:02.274Z,6.10
2018-07-22T09:46:32.853Z,5.80
2018-07-22T09:49:03.589Z,5.92
2018-07-22T09:51:34.131Z,6.03
2018-07-22T09:54:04.558Z,5.72
2018-07-22T09:56:34.913Z,5.62
2018-07-22T09:59:05.380Z,6.25
2018-07-22T10:01:35.734Z,5.72
2018-07-22T10:04:06.174Z,6.28
2018-07-22T10:06:36.645Z,6.10
2018-07-22T10:09:09.546Z,6.05
2018-07-22T10:11:44.957Z,6.12
2018-07-22T10:14:15.562Z,6.20
2018-07-22T10:16:46.128Z,6.35
2018-07-22T10:19:16.580Z,6.05
2018-07-22T10:21:47.047Z,5.87
2018-07-22T10:24:17.496Z,5.85
2018-07-22T10:26:48.055Z,6.25
2018-07-22T10:29:18.554Z,5.90
2018-07-22T10:31:48.939Z,5.60
2018-07-22T10:34:19.423Z,6.17
2018-07-22T10:36:49.812Z,5.87
2018-07-22T10:39:20.279Z,5.87
2018-07-22T10:41:50.718Z,6.15
2018-07-22T10:44:21.140Z,5.60
2018-07-22T10:46:51.510Z,5.28
2018-07-22T10:49:21.865Z,5.75
2018-07-22T10:51:52.233Z,6.30
2018-07-22T10:54:22.593Z,5.60
2018-07-22T10:56:52.997Z,5.67
2018-07-22T10:59:23.361Z,8.98
2018-07-22T11:01:53.775Z,5.62
2018-07-22T11:04:24.259Z,5.75
2018-07-22T11:06:54.729Z,5.67
2018-07-22T11:09:25.083Z,5.92
2018-07-22T11:11:55.505Z,5.85
2018-07-22T11:14:25.912Z,5.90
2018-07-22T11:16:56.518Z,6.40
2018-07-22T11:19:26.882Z,6.03
2018-07-22T11:21:57.293Z,6.10
2018-07-22T11:24:27.753Z,6.00
2018-07-22T11:26:58.155Z,5.65
2018-07-22T11:29:28.549Z,5.90
2018-07-22T11:31:58.925Z,7.62
2018-07-22T11:34:29.305Z,6.08
2018-07-22T11:37:00.043Z,6.47
2018-07-22T11:39:30.512Z,6.95
2018-07-22T11:42:01.689Z,6.22
2018-07-22T11:44:32.069Z,6.53
2018-07-22T11:47:02.412Z,6.40
2018-07-22T11:49:32.812Z,6.47
2018-07-22T11:52:03.209Z,5.92
2018-07-22T11:54:33.629Z,5.83
2018-07-22T11:57:03.993Z,6.00
2018-07-22T11:59:34.384Z,5.95
2018-07-22T12:02:05.165Z,6.42
2018-07-22T12:04:35.604Z,6.10
2018-07-22T12:07:05.974Z,6.00
2018-07-22T12:09:37.444Z,6.55
2018-07-22T12:12:09.675Z,6.05
2018-07-22T12:14:41.602Z,6.37
2018-07-22T12:17:13.691Z,6.25
2018-07-22T12:19:45.826Z,6.17
2018-07-22T12:22:24.404Z,5.87
2018-07-22T12:24:58.194Z,6.28
2018-07-22T12:27:32.610Z,6.35
2018-07-22T12:30:03.095Z,6.42
2018-07-22T12:32:33.516Z,6.60
2018-07-22T12:35:03.910Z,6.47
2018-07-22T12:37:34.573Z,6.42
2018-07-22T12:40:05.050Z,5.60
2018-07-22T12:42:35.410Z,6.50
2018-07-22T12:45:06.992Z,6.42
2018-07-22T12:47:37.337Z,6.50
2018-07-22T12:50:07.800Z,5.90
2018-07-22T12:52:38.198Z,6.67
2018-07-22T12:55:08.618Z,6.92
2018-07-22T12:57:39.161Z,6.50
2018-07-22T13:00:09.780Z,6.00
2018-07-22T13:02:40.125Z,6.53
2018-07-22T13:05:10.571Z,6.60
2018-07-22T13:07:40.997Z,6.15
2018-07-22T13:10:12.034Z,6.22
2018-07-22T13:12:42.397Z,6.35
2018-07-22T13:15:12.930Z,6.00
2018-07-22T13:17:43.333Z,7.00
2018-07-22T13:20:13.726Z,5.72
2018-07-22T13:22:44.094Z,6.40
2018-07-22T13:25:14.541Z,6.47
2018-07-22T13:27:44.878Z,6.37
2018-07-22T13:30:15.396Z,6.53
2018-07-22T13:32:45.728Z,6.25
2018-07-22T13:35:16.114Z,5.90
2018-07-22T13:37:46.639Z,6.25
2018-07-22T13:40:16.989Z,6.53
2018-07-22T13:42:47.380Z,5.85
2018-07-22T13:45:17.838Z,6.08
2018-07-22T13:47:48.427Z,6.42
2018-07-22T13:50:20.806Z,6.30
2018-07-22T13:52:52.644Z,6.47
2018-07-22T13:55:24.414Z,6.58
2018-07-22T13:57:56.441Z,6.42
2018-07-22T14:00:28.261Z,6.40
2018-07-22T14:06:10.958Z,6.03
2018-07-22T14:08:44.018Z,6.37
2018-07-22T14:11:15.837Z,6.08
2018-07-22T14:13:47.621Z,6.55
2018-07-22T14:16:19.433Z,6.62
2018-07-22T14:18:51.663Z,6.42
2018-07-22T14:21:35.155Z,6.45
2018-07-22T14:24:07.839Z,6.20
2018-07-22T14:26:52.754Z,6.65
2018-07-22T14:29:25.127Z,6.72
2018-07-22T14:38:59.265Z,6.45
2018-07-22T14:41:33.181Z,6.35
2018-07-22T14:44:05.735Z,6.78
2018-07-22T14:46:38.430Z,6.42
2018-07-22T14:49:10.845Z,6.45
2018-07-22T14:51:43.881Z,6.60
2018-07-22T14:54:16.085Z,5.85
2018-07-22T14:56:48.358Z,6.72
2018-07-22T14:59:21.111Z,6.55
2018-07-22T15:01:51.797Z,6.40
2018-07-22T15:04:22.160Z,7.12
2018-07-22T15:06:52.577Z,6.67
2018-07-22T15:09:22.986Z,7.00
2018-07-22T15:11:53.393Z,6.95
2018-07-22T15:14:23.808Z,7.20
2018-07-22T15:16:54.592Z,7.03
2018-07-22T15:19:24.939Z,6.60
2018-07-22T15:21:55.506Z,6.70
2018-07-22T15:24:27.597Z,7.05
2018-07-22T15:26:59.396Z,6.80
2018-07-22T15:29:33.074Z,6.20
2018-07-22T15:32:04.372Z,6.40
2018-07-22T15:34:34.741Z,7.03
2018-07-22T15:37:05.196Z,6.83
2018-07-22T15:39:35.645Z,6.83
2018-07-22T15:42:06.443Z,7.20
2018-07-22T15:44:53.268Z,6.55
2018-07-22T15:47:35.017Z,6.22
2018-07-22T15:50:07.937Z,7.17
2018-07-22T15:52:40.863Z,6.58
2018-07-22T15:55:14.018Z,6.55
2018-07-22T15:57:46.351Z,6.70
2018-07-22T16:00:24.958Z,6.67
2018-07-22T16:03:02.452Z,6.95
2018-07-22T16:05:35.485Z,6.28
2018-07-22T16:08:07.426Z,6.08
2018-07-22T16:13:52.051Z,6.75
2018-07-22T16:16:24.159Z,6.33
2018-07-22T16:18:56.923Z,6.20
2018-07-22T16:21:29.657Z,6.65
2018-07-22T16:24:02.276Z,6.28
2018-07-22T16:26:34.767Z,6.42
2018-07-22T16:29:07.230Z,7.12
2018-07-22T16:31:59.668Z,6.50
2018-07-22T16:34:32.002Z,6.92
2018-07-22T16:40:17.240Z,6.65
2018-07-22T16:45:49.498Z,6.00
2018-07-22T16:48:30.118Z,6.47
2018-07-22T16:51:03.220Z,6.53
2018-07-22T16:56:52.295Z,6.33
2018-07-22T16:59:26.642Z,6.12
2018-07-22T17:01:58.033Z,6.40
2018-07-22T17:04:28.480Z,6.53
2018-07-22T17:06:58.981Z,7.33
2018-07-22T17:09:29.507Z,6.90
2018-07-22T17:11:59.949Z,6.42
2018-07-22T17:14:30.302Z,6.53
2018-07-22T17:17:00.761Z,5.97
2018-07-22T17:19:31.105Z,6.78
2018-07-22T17:22:01.500Z,6.65
2018-07-22T17:24:31.906Z,6.85
2018-07-22T17:27:02.489Z,7.00
2018-07-22T17:29:32.957Z,6.67
2018-07-22T17:32:03.549Z,6.70
2018-07-22T17:34:54.956Z,6.90
2018-07-22T17:37:38.483Z,6.72
2018-07-22T17:40:22.322Z,6.87
2018-07-22T17:43:06.360Z,7.03
2018-07-22T17:45:40.445Z,7.20
2018-07-22T17:48:10.882Z,7.20
2018-07-22T17:50:41.245Z,7.28
2018-07-22T17:53:11.687Z,7.80
2018-07-22T17:55:42.084Z,7.20
2018-07-22T17:58:13.334Z,7.33
2018-07-22T18:00:43.724Z,7.67
2018-07-22T18:03:21.985Z,7.53
2018-07-22T18:05:52.925Z,7.65
2018-07-22T18:08:23.700Z,7.47
2018-07-22T18:10:55.216Z,8.15
2018-07-22T18:13:26.109Z,7.70
2018-07-22T18:15:57.379Z,8.25
2018-07-22T18:18:28.102Z,8.73
2018-07-22T18:20:58.742Z,8.05
2018-07-22T18:23:29.441Z,7.55
2018-07-22T18:26:00.197Z,7.65
2018-07-22T18:28:30.861Z,7.80
2018-07-22T18:31:01.539Z,7.97
2018-07-22T18:33:33.146Z,7.75
2018-07-22T18:36:03.881Z,8.10
2018-07-22T18:38:35.717Z,7.70
2018-07-22T18:41:06.900Z,8.05
2018-07-22T18:43:38.447Z,8.25
2018-07-22T18:46:09.329Z,8.40
2018-07-22T18:48:39.596Z,8.23
2018-07-22T18:51:10.718Z,7.80
2018-07-22T18:53:41.444Z,8.33
2018-07-22T18:56:12.924Z,7.97
2018-07-22T18:58:43.215Z,7.67
2018-07-22T19:01:14.157Z,8.70
2018-07-22T19:03:44.490Z,8.73
2018-07-22T19:06:14.644Z,8.83
2018-07-22T19:08:45.243Z,9.10
2018-07-22T19:11:15.521Z,9.20
2018-07-22T19:13:45.736Z,8.70
2018-07-22T19:16:16.053Z,8.77
2018-07-22T19:18:46.284Z,9.20
2018-07-22T19:21:19.044Z,9.57
2018-07-22T19:23:49.961Z,9.40
2018-07-22T19:26:20.171Z,9.30
2018-07-22T19:28:50.286Z,9.03
2018-07-22T19:31:20.419Z,9.27
2018-07-22T19:33:50.495Z,9.27
2018-07-22T19:36:20.729Z,9.53
2018-07-22T19:38:50.805Z,9.70
2018-07-22T19:41:21.163Z,9.10
2018-07-22T19:43:51.297Z,9.57
2018-07-22T19:46:21.553Z,9.50
2018-07-22T19:48:51.622Z,9.77
2018-07-22T19:51:21.709Z,9.73
2018-07-22T19:53:51.756Z,9.50
2018-07-22T19:56:21.832Z,9.53
2018-07-22T19:58:51.887Z,11.03
2018-07-22T20:01:22.036Z,9.70
2018-07-22T20:03:52.317Z,10.60
2018-07-22T20:06:28.737Z,10.33
2018-07-22T20:08:59.767Z,10.67
2018-07-22T20:11:29.929Z,9.87
2018-07-22T20:13:59.968Z,9.73
2018-07-22T20:16:30.005Z,10.03
2018-07-22T20:19:00.186Z,9.63
2018-07-22T20:21:31.077Z,9.40
2018-07-22T20:24:01.205Z,9.07
2018-07-22T20:26:31.504Z,9.50
2018-07-22T20:29:01.583Z,9.60
2018-07-22T20:31:31.619Z,11.03
2018-07-22T20:34:01.726Z,9.90
2018-07-22T20:36:31.771Z,9.67
2018-07-22T20:39:01.891Z,10.00
2018-07-22T20:41:32.121Z,9.17
2018-07-22T20:44:02.201Z,9.60
2018-07-22T20:46:32.244Z,10.03
2018-07-22T20:49:02.353Z,9.67
2018-07-22T20:51:32.412Z,9.63
2018-07-22T20:54:02.496Z,10.23
2018-07-22T20:56:32.589Z,10.00
2018-07-22T20:59:02.629Z,9.37
2018-07-22T21:01:32.681Z,10.07
2018-07-22T21:04:02.746Z,9.67
2018-07-22T21:06:32.824Z,10.00
2018-07-22T21:09:03.165Z,9.80
2018-07-22T21:11:43.597Z,10.07
2018-07-22T21:14:13.504Z,10.57
2018-07-22T21:16:43.641Z,9.53
2018-07-22T21:19:14.038Z,10.37
2018-07-22T21:21:44.219Z,10.20
2018-07-22T21:24:14.441Z,10.83
2018-07-22T21:26:44.522Z,10.27
2018-07-22T21:29:14.869Z,10.57
2018-07-22T21:31:45.113Z,10.37
2018-07-22T21:34:15.178Z,9.70
2018-07-22T21:36:45.295Z,9.80
2018-07-22T21:39:15.341Z,9.70
2018-07-22T21:41:45.645Z,9.37
2018-07-22T21:44:15.722Z,8.90
2018-07-22T21:46:45.790Z,9.27
2018-07-22T21:49:15.961Z,9.33
2018-07-22T21:51:46.029Z,9.23
2018-07-22T21:54:16.097Z,9.10
2018-07-22T21:56:46.157Z,9.10
2018-07-22T21:59:16.236Z,9.03
2018-07-22T22:01:54.041Z,9.80
2018-07-22T22:04:23.877Z,9.13
2018-07-22T22:06:53.921Z,9.67
2018-07-22T22:09:23.949Z,9.13
2018-07-22T22:11:54.007Z,9.03
2018-07-22T22:14:24.275Z,9.60
2018-07-22T22:16:54.329Z,8.83
2018-07-22T22:19:24.547Z,8.77
2018-07-22T22:21:54.594Z,8.77
2018-07-22T22:24:24.685Z,9.53
2018-07-22T22:26:54.873Z,9.53
2018-07-22T22:29:25.498Z,9.00
2018-07-22T22:31:55.645Z,10.07
2018-07-22T22:34:25.722Z,9.57
2018-07-22T22:36:55.526Z,9.57
2018-07-22T22:39:25.562Z,9.17
2018-07-22T22:41:55.701Z,9.30
2018-07-22T22:44:25.781Z,9.33
2018-07-22T22:46:55.926Z,9.50
2018-07-22T22:49:26.714Z,9.70
2018-07-22T22:51:56.769Z,9.23
2018-07-22T22:54:56.679Z,9.40
2018-07-22T22:57:27.422Z,10.20
2018-07-22T22:59:57.262Z,10.00
2018-07-22T23:02:35.352Z,10.07
2018-07-22T23:05:06.717Z,10.20
2018-07-22T23:07:37.452Z,10.30
2018-07-22T23:10:07.593Z,9.73
2018-07-22T23:12:37.648Z,9.23
2018-07-22T23:15:07.861Z,9.90
2018-07-22T23:17:38.915Z,9.47
2018-07-22T23:20:09.109Z,10.00
2018-07-22T23:22:39.181Z,9.57
2018-07-22T23:25:09.131Z,9.73
2018-07-22T23:27:39.220Z,11.10
2018-07-22T23:30:09.286Z,9.37
2018-07-22T23:32:39.348Z,10.43
2018-07-22T23:35:09.393Z,10.50
2018-07-22T23:37:39.528Z,10.60
2018-07-22T23:40:09.646Z,10.63
2018-07-22T23:42:39.722Z,11.03
2018-07-22T23:45:09.782Z,10.03
2018-07-22T23:47:39.844Z,10.73
2018-07-22T23:50:09.998Z,11.10
2018-07-22T23:52:40.161Z,10.47
2018-07-22T23:55:10.361Z,10.30
2018-07-22T23:57:40.412Z,10.17
